Startpagina
METAR-TAF:

METAR-TAF

Vliegvelden :

Luchthaven Iqaluit

Iqaluit, Nunavut, Canada

breedte: 63-45N, lengte: 068-33W, hoogte: 34 m

Actueel weer

Dit bericht is 36 minuten geleden gemaakt, om 09:00 UTC
Wind 7 kt uit het noordnoordwesten
Temperatuur -16°C
Vochtigheid 71%
Druk 1017 hPa
Zicht: 24.1 km
Onbewolkt

METAR: CYFB 220900Z 33007KT 15SM SKC M16/M20 A3003 RMK SLP175

Tijdstip: 05:36 (09:36 UTC)

Verwachting

Dit bericht is 3 uur en het 55 minuten geleden gemaakt, om 05:41 UTC
Verwachting geldig van 22 om 06 UTC tot 23 om 06 UTC
Wind 5 kt uit het noordwesten
Zicht: 10 km
Onbewolkt
Van 22 om 1500 UTC
Wind 10 kt uit het noordnoordwesten
Zicht: 10 km
Gebroken wolken op 4000 ft
Tijdelijke
van 22 om 15 UTC tot 23 om 03 UTC
Verspreide wolken op 4000 ft
Van 23 om 0300 UTC
Wind 7 kt uit het noordnoordwesten
Zicht: 10 km
Weinig wolken op 3000 ft

TAF: CYFB 220541Z 2206/2306 32005KT P6SM SKC FM221500 34010KT P6SM BKN040 TEMPO 2215/2303 SCT040 FM230300 33007KT P6SM FEW030 RMK NXT FCST BY 221200Z

Waarnemingen en weersverwachtingen van meer dan 4000 vliegvelden (METAR en TAF).

De beschikbare stations zijn de gele en rode punten op de kaart.

Ga met uw muis naar het station om de naam te zien.

Klik dan om waarnemingen en weersverwachtingen te zien.

kaart wijzigen: klik op de groene knoppen met een zwart kruis om in te zoomen, op de groene knop met een streepje om uit te zoomen of op de groene pijlen voor aangrenzende kaarten.


METAR-TAF: